Time;durP1;ratioP1;P1;durP2;ratioP2;P2;SDS_P1;SDS_P2;PMS_P1;PMS_P2;Temp;Humidity;BMP_temperature;BMP_pressure;BME280_temperature;BME280_humidity;BME280_pressure;Samples;Min_cycle;Max_cycle;Signal;HPM_P1;HPM_P2
2023/03/05 00:00:45;;;;;;;6.88;4.40;;;4.10;64.90;;;;;;4974237;28;20027;-53
2023/03/05 00:03:11;;;;;;;6.15;4.43;;;4.10;64.80;;;;;;4974266;28;20038;-53
2023/03/05 00:05:37;;;;;;;6.20;4.07;;;4.10;64.90;;;;;;4974092;28;20027;-54
2023/03/05 00:08:02;;;;;;;4.53;3.55;;;4.10;65.60;;;;;;4974065;28;20585;-62
2023/03/05 00:10:28;;;;;;;5.32;3.92;;;4.10;65.00;;;;;;4973980;28;20077;-62
2023/03/05 00:12:53;;;;;;;5.00;3.42;;;4.20;64.90;;;;;;4971260;28;20504;-61
2023/03/05 00:15:19;;;;;;;3.95;3.30;;;4.20;64.70;;;;;;4977062;28;20038;-62
2023/03/05 00:17:45;;;;;;;3.75;2.90;;;4.20;64.60;;;;;;4972440;28;20041;-62
2023/03/05 00:20:11;;;;;;;3.17;2.80;;;4.20;64.30;;;;;;4973303;28;20039;-62
2023/03/05 00:22:36;;;;;;;2.83;2.42;;;4.20;64.00;;;;;;4973839;28;20058;-61
2023/03/05 00:25:04;;;;;;;2.97;2.33;;;4.10;63.20;;;;;;4973360;28;20428;-60
2023/03/05 00:27:29;;;;;;;3.33;2.50;;;4.20;63.00;;;;;;4973064;28;20035;-61
2023/03/05 00:29:55;;;;;;;2.38;2.20;;;4.20;63.10;;;;;;4973505;28;20038;-60
2023/03/05 00:32:21;;;;;;;2.15;2.00;;;4.10;62.50;;;;;;4973321;28;20039;-61
2023/03/05 00:34:48;;;;;;;2.60;2.40;;;4.10;62.20;;;;;;4973576;28;20034;-61
2023/03/05 00:37:14;;;;;;;3.22;2.25;;;4.10;62.00;;;;;;4972504;28;20539;-62
2023/03/05 00:39:40;;;;;;;2.72;2.30;;;4.10;61.80;;;;;;4973417;28;20027;-62
2023/03/05 00:42:06;;;;;;;2.35;2.15;;;4.10;61.30;;;;;;4974435;28;20042;-52
2023/03/05 00:44:32;;;;;;;2.20;2.00;;;4.10;61.40;;;;;;4976804;28;20074;-52
2023/03/05 00:46:57;;;;;;;2.13;2.03;;;4.10;61.20;;;;;;4975332;28;20493;-63
2023/03/05 00:49:23;;;;;;;2.28;2.08;;;4.10;61.00;;;;;;4978547;28;20026;-64
2023/03/05 00:51:49;;;;;;;2.38;1.80;;;4.20;61.10;;;;;;4973590;28;20031;-64
2023/03/05 00:54:14;;;;;;;2.80;2.33;;;4.20;60.70;;;;;;4973366;28;20078;-64
2023/03/05 00:56:40;;;;;;;2.25;2.05;;;4.20;60.50;;;;;;4971572;28;20058;-64
2023/03/05 00:59:06;;;;;;;1.83;1.73;;;4.10;59.40;;;;;;4972847;28;20042;-63
2023/03/05 01:01:31;;;;;;;2.38;2.08;;;4.10;59.20;;;;;;4967470;28;20093;-62
2023/03/05 01:03:58;;;;;;;2.08;1.77;;;4.10;59.10;;;;;;4972717;28;20113;-62
2023/03/05 01:06:24;;;;;;;2.33;2.13;;;4.00;58.90;;;;;;4972123;28;20022;-51
2023/03/05 01:08:50;;;;;;;2.10;1.90;;;3.90;58.50;;;;;;4973147;28;20031;-55
2023/03/05 01:11:16;;;;;;;2.03;1.90;;;3.90;58.30;;;;;;4972769;28;20045;-61
2023/03/05 01:13:41;;;;;;;2.17;1.77;;;3.90;58.40;;;;;;4974333;28;20022;-61
2023/03/05 01:16:07;;;;;;;1.60;1.50;;;3.90;58.20;;;;;;4972113;28;20041;-60
2023/03/05 01:18:33;;;;;;;2.58;1.90;;;3.90;57.90;;;;;;4972987;28;20031;-61
2023/03/05 01:20:59;;;;;;;1.75;1.65;;;3.80;57.30;;;;;;4973172;28;20030;-54
2023/03/05 01:23:24;;;;;;;1.83;1.73;;;3.80;57.00;;;;;;4972926;28;20047;-51
2023/03/05 01:25:55;;;;;;;1.95;1.85;;;3.70;56.30;;;;;;4966346;28;20030;-53
2023/03/05 01:28:21;;;;;;;1.80;1.70;;;3.60;56.50;;;;;;4972340;28;20517;-54
2023/03/05 01:30:47;;;;;;;1.70;1.60;;;3.70;56.60;;;;;;4976939;28;20049;-61
2023/03/05 01:33:13;;;;;;;2.10;1.90;;;3.60;56.70;;;;;;4976751;28;20035;-61
2023/03/05 01:35:38;;;;;;;1.90;1.80;;;3.60;56.30;;;;;;4977090;28;20035;-64
2023/03/05 01:38:04;;;;;;;2.00;1.80;;;3.60;56.30;;;;;;4976367;28;20085;-64
2023/03/05 01:40:30;;;;;;;1.70;1.60;;;3.60;56.30;;;;;;4976819;28;20058;-64
2023/03/05 01:43:07;;;;;;;3.00;1.77;;;3.50;56.20;;;;;;4981319;28;20571;-64
2023/03/05 01:45:32;;;;;;;1.90;1.80;;;3.50;56.10;;;;;;4973180;28;20352;-53
2023/03/05 01:47:58;;;;;;;1.48;1.48;;;3.50;55.80;;;;;;4978766;28;20050;-56
2023/03/05 01:50:26;;;;;;;1.60;1.50;;;3.40;55.40;;;;;;4982411;28;20026;-54
2023/03/05 01:53:02;;;;;;;1.60;1.50;;;3.40;55.90;;;;;;4973229;28;20043;-53
2023/03/05 01:55:31;;;;;;;1.80;1.70;;;3.40;55.40;;;;;;4976015;28;20038;-61
2023/03/05 01:58:05;;;;;;;1.80;1.70;;;3.30;55.40;;;;;;4975024;28;20377;-61
2023/03/05 02:00:39;;;;;;;1.65;1.52;;;3.30;55.60;;;;;;4975395;28;20366;-62
2023/03/05 02:03:09;;;;;;;1.48;1.40;;;3.20;55.30;;;;;;4972748;28;20031;-61
2023/03/05 02:05:37;;;;;;;1.80;1.70;;;3.20;55.60;;;;;;4968323;28;20486;-61
2023/03/05 02:08:06;;;;;;;1.80;1.70;;;3.10;55.50;;;;;;4958972;28;20037;-61
2023/03/05 02:10:41;;;;;;;1.50;1.50;;;3.10;55.40;;;;;;4973544;28;20038;-61
2023/03/05 02:13:26;;;;;;;1.75;1.65;;;3.10;55.60;;;;;;4976864;28;20038;-60
2023/03/05 02:15:54;;;;;;;1.70;1.60;;;3.00;55.70;;;;;;4981240;28;20038;-60
2023/03/05 02:18:20;;;;;;;1.80;1.70;;;3.00;55.70;;;;;;4963168;28;20082;-61
2023/03/05 02:20:46;;;;;;;1.40;1.40;;;2.90;55.60;;;;;;4965495;28;20054;-60
2023/03/05 02:23:13;;;;;;;1.80;1.70;;;2.90;55.70;;;;;;4968431;28;20731;-60
2023/03/05 02:25:38;;;;;;;1.52;1.52;;;2.90;55.80;;;;;;4973986;28;20023;-53
2023/03/05 02:28:10;;;;;;;1.63;1.52;;;2.90;55.80;;;;;;4974126;28;20031;-52
2023/03/05 02:30:37;;;;;;;1.50;1.50;;;2.90;56.00;;;;;;4974254;28;20109;-60
2023/03/05 02:33:04;;;;;;;1.90;1.77;;;2.80;55.90;;;;;;4973922;28;20019;-60
2023/03/05 02:35:29;;;;;;;1.90;1.70;;;2.80;55.80;;;;;;4973102;28;20429;-53
2023/03/05 02:37:55;;;;;;;1.85;1.80;;;2.80;55.80;;;;;;4963442;28;20031;-54
2023/03/05 02:40:21;;;;;;;1.85;1.75;;;2.80;55.90;;;;;;4972858;28;20580;-53
2023/03/05 02:42:47;;;;;;;1.52;1.42;;;2.70;55.90;;;;;;4978599;28;20508;-53
2023/03/05 02:45:14;;;;;;;1.70;1.60;;;2.70;55.90;;;;;;4973367;28;20050;-61
2023/03/05 02:47:40;;;;;;;1.90;1.80;;;2.70;55.70;;;;;;4973707;28;20046;-62
2023/03/05 02:50:06;;;;;;;1.80;1.70;;;2.60;55.70;;;;;;4980841;28;20030;-61
2023/03/05 02:52:32;;;;;;;1.83;1.73;;;2.60;55.70;;;;;;4974253;28;20046;-61
2023/03/05 02:54:58;;;;;;;1.63;1.52;;;2.50;55.70;;;;;;4974303;28;20469;-61
2023/03/05 02:57:24;;;;;;;1.92;1.80;;;2.50;55.80;;;;;;4974413;28;20082;-61
2023/03/05 02:59:49;;;;;;;1.83;1.73;;;2.40;55.80;;;;;;4973405;28;20034;-62
2023/03/05 03:02:16;;;;;;;1.63;1.52;;;2.40;55.80;;;;;;4974350;28;20035;-62
2023/03/05 03:04:43;;;;;;;1.80;1.70;;;2.40;55.90;;;;;;4974203;28;20035;-62
2023/03/05 03:07:10;;;;;;;2.08;1.85;;;2.40;56.00;;;;;;4974017;28;20355;-52
2023/03/05 03:09:35;;;;;;;1.80;1.70;;;2.40;56.10;;;;;;4973903;28;20027;-54
2023/03/05 03:12:02;;;;;;;1.80;1.70;;;2.40;56.20;;;;;;4973893;28;20093;-60
2023/03/05 03:14:39;;;;;;;1.70;1.70;;;2.40;56.30;;;;;;4982459;28;20049;-60
2023/03/05 03:17:16;;;;;;;3.42;2.38;;;2.40;56.30;;;;;;4973499;28;20054;-63
2023/03/05 03:19:43;;;;;;;2.95;2.60;;;2.40;56.30;;;;;;4961555;28;20066;-63
2023/03/05 03:22:11;;;;;;;1.90;1.80;;;2.30;56.30;;;;;;4934420;28;1138510;-62
2023/03/05 03:24:37;;;;;;;1.90;1.80;;;2.30;56.30;;;;;;4965900;28;20045;-62
2023/03/05 03:27:03;;;;;;;1.90;1.80;;;2.30;56.30;;;;;;4974039;28;20773;-53
2023/03/05 03:29:29;;;;;;;1.70;1.60;;;2.30;56.50;;;;;;4973367;28;20077;-56
2023/03/05 03:31:55;;;;;;;1.80;1.70;;;2.30;56.70;;;;;;4973299;28;20409;-54
2023/03/05 03:34:21;;;;;;;2.00;1.90;;;2.30;56.70;;;;;;4974415;28;20030;-54
2023/03/05 03:36:48;;;;;;;2.10;1.65;;;2.30;56.60;;;;;;4974531;28;20035;-60
2023/03/05 03:39:14;;;;;;;1.88;1.77;;;2.30;56.70;;;;;;4974943;28;20026;-61
2023/03/05 03:41:42;;;;;;;1.70;1.70;;;2.20;56.70;;;;;;4976124;28;20034;-62
2023/03/05 03:44:09;;;;;;;2.10;1.88;;;2.20;56.70;;;;;;4976831;28;20183;-62
2023/03/05 03:46:39;;;;;;;1.95;1.85;;;2.10;56.50;;;;;;4978976;28;20521;-62
2023/03/05 03:49:09;;;;;;;1.88;1.70;;;2.10;56.30;;;;;;4977714;28;20050;-61
2023/03/05 03:51:34;;;;;;;2.03;1.83;;;2.10;56.30;;;;;;4977367;28;20034;-62
2023/03/05 03:54:00;;;;;;;2.05;1.95;;;2.00;56.40;;;;;;4966927;28;20049;-62
2023/03/05 03:56:26;;;;;;;1.80;1.70;;;1.90;56.30;;;;;;4969272;28;20043;-55
2023/03/05 03:58:52;;;;;;;2.80;2.00;;;1.90;56.40;;;;;;4973837;28;20030;-49
2023/03/05 04:01:19;;;;;;;1.88;1.77;;;1.90;56.30;;;;;;4973285;28;20101;-62
2023/03/05 04:03:45;;;;;;;2.00;1.83;;;1.90;56.10;;;;;;4974456;28;20082;-62
2023/03/05 04:06:11;;;;;;;1.70;1.60;;;1.80;56.00;;;;;;4974029;28;20023;-60
2023/03/05 04:08:37;;;;;;;2.60;1.80;;;1.80;56.00;;;;;;4974223;28;20034;-60
2023/03/05 04:11:03;;;;;;;1.98;1.85;;;1.70;55.90;;;;;;4969928;28;20019;-62
2023/03/05 04:13:28;;;;;;;2.03;1.92;;;1.70;55.90;;;;;;4968427;28;20038;-62
2023/03/05 04:15:54;;;;;;;1.80;1.70;;;1.70;56.00;;;;;;4977306;28;20105;-64
2023/03/05 04:18:20;;;;;;;1.90;1.80;;;1.70;56.20;;;;;;4973282;28;20050;-63
2023/03/05 04:20:46;;;;;;;2.50;2.30;;;1.60;56.20;;;;;;4974173;28;20034;-62
2023/03/05 04:23:12;;;;;;;2.55;1.92;;;1.60;56.20;;;;;;4973873;28;20078;-62
2023/03/05 04:25:38;;;;;;;1.98;1.88;;;1.60;56.20;;;;;;4973891;28;20117;-63
2023/03/05 04:28:03;;;;;;;2.95;1.60;;;1.60;56.10;;;;;;4973702;28;20517;-63
2023/03/05 04:30:30;;;;;;;2.10;1.90;;;1.60;56.20;;;;;;4973258;28;20037;-63
2023/03/05 04:32:56;;;;;;;2.13;1.92;;;1.50;56.10;;;;;;4973558;28;20042;-62
2023/03/05 04:35:21;;;;;;;2.70;1.88;;;1.50;56.10;;;;;;4973685;28;20030;-54
2023/03/05 04:37:47;;;;;;;2.80;2.10;;;1.50;56.20;;;;;;4973798;28;20035;-54
2023/03/05 04:40:14;;;;;;;1.73;1.70;;;1.50;56.30;;;;;;4975286;28;20027;-52
2023/03/05 04:42:39;;;;;;;2.35;1.90;;;1.50;56.40;;;;;;4978049;28;20066;-52
2023/03/05 04:45:06;;;;;;;1.90;1.80;;;1.50;56.30;;;;;;4972605;28;20489;-49
2023/03/05 04:47:32;;;;;;;2.70;2.22;;;1.50;56.60;;;;;;4978521;28;20193;-55
2023/03/05 04:49:58;;;;;;;1.88;1.77;;;1.50;56.50;;;;;;4980853;28;20110;-52
2023/03/05 04:52:24;;;;;;;2.50;2.00;;;1.50;56.70;;;;;;4973835;28;20597;-61
2023/03/05 04:54:49;;;;;;;1.85;1.75;;;1.50;56.60;;;;;;4972467;28;20819;-61
2023/03/05 04:57:15;;;;;;;1.80;1.70;;;1.50;56.70;;;;;;4973102;28;20031;-61
2023/03/05 04:59:41;;;;;;;2.00;1.85;;;1.50;56.70;;;;;;4969945;28;20050;-62
2023/03/05 05:02:06;;;;;;;3.90;2.08;;;1.50;56.70;;;;;;4972369;28;20465;-62
2023/03/05 05:04:34;;;;;;;1.90;1.80;;;1.50;56.60;;;;;;4971690;28;20062;-62
2023/03/05 05:07:00;;;;;;;1.95;1.83;;;1.60;56.80;;;;;;4970526;28;20035;-55
2023/03/05 05:09:26;;;;;;;2.58;1.92;;;1.60;56.90;;;;;;4971643;28;20023;-54
2023/03/05 05:11:52;;;;;;;2.40;1.85;;;1.60;56.80;;;;;;4962670;28;20042;-56
2023/03/05 05:14:18;;;;;;;1.75;1.65;;;1.70;56.80;;;;;;4977334;28;20468;-54
2023/03/05 05:16:43;;;;;;;2.00;1.83;;;1.80;56.90;;;;;;4973221;28;20086;-63
2023/03/05 05:19:09;;;;;;;2.15;1.95;;;1.90;57.00;;;;;;4972766;28;20027;-62
2023/03/05 05:21:35;;;;;;;2.05;1.95;;;1.90;56.70;;;;;;4973054;28;20434;-62
2023/03/05 05:24:00;;;;;;;1.88;1.77;;;1.90;56.70;;;;;;4972733;28;20570;-62
2023/03/05 05:26:26;;;;;;;2.40;2.20;;;2.00;56.70;;;;;;4972672;28;20089;-62
2023/03/05 05:28:52;;;;;;;2.20;2.00;;;2.00;56.60;;;;;;4972816;28;20050;-62
2023/03/05 05:31:18;;;;;;;1.75;1.65;;;2.10;56.50;;;;;;4972059;28;20039;-62
2023/03/05 05:33:44;;;;;;;1.83;1.73;;;2.20;56.90;;;;;;4971677;28;20509;-62
2023/03/05 05:36:12;;;;;;;1.80;1.70;;;2.20;56.70;;;;;;4970980;28;20031;-62
2023/03/05 05:38:38;;;;;;;2.10;1.90;;;2.30;56.90;;;;;;4972154;28;20430;-61
2023/03/05 05:41:16;;;;;;;3.53;1.88;;;2.40;56.50;;;;;;4974336;28;20057;-60
2023/03/05 05:43:42;;;;;;;2.72;1.90;;;2.40;56.50;;;;;;4976893;28;20043;-61
2023/03/05 05:46:12;;;;;;;2.00;1.90;;;2.40;56.50;;;;;;4971721;28;20030;-61
2023/03/05 05:48:38;;;;;;;2.30;2.10;;;2.50;56.60;;;;;;4966944;28;20041;-61
2023/03/05 05:51:13;;;;;;;2.67;2.10;;;2.50;56.50;;;;;;4963394;28;20034;-60
2023/03/05 05:53:39;;;;;;;2.63;1.90;;;2.50;56.50;;;;;;4964029;28;20035;-59
2023/03/05 05:56:06;;;;;;;1.83;1.73;;;2.60;56.70;;;;;;4969464;28;20058;-59
2023/03/05 05:58:32;;;;;;;2.00;1.90;;;2.60;56.40;;;;;;4971873;28;20019;-61
2023/03/05 06:00:57;;;;;;;1.95;1.83;;;2.60;56.50;;;;;;4968768;28;20370;-60
2023/03/05 06:03:23;;;;;;;2.40;2.00;;;2.70;56.40;;;;;;4966886;28;20061;-60
2023/03/05 06:05:50;;;;;;;2.00;1.88;;;2.80;56.30;;;;;;4969204;28;20027;-60
2023/03/05 06:08:17;;;;;;;1.60;1.50;;;2.90;56.20;;;;;;4971970;28;20165;-60
2023/03/05 06:10:43;;;;;;;2.03;1.75;;;3.10;56.20;;;;;;4971919;28;20031;-64
2023/03/05 06:13:08;;;;;;;2.38;2.00;;;3.20;55.80;;;;;;4960434;28;20037;-64
2023/03/05 06:15:34;;;;;;;2.00;1.80;;;3.40;55.20;;;;;;4974277;28;20062;-55
2023/03/05 06:18:00;;;;;;;1.80;1.70;;;3.60;55.40;;;;;;4975146;28;20046;-53
2023/03/05 06:20:27;;;;;;;2.22;2.03;;;3.80;55.00;;;;;;4975862;28;20843;-61
2023/03/05 06:22:53;;;;;;;2.63;2.03;;;3.90;54.00;;;;;;4968641;28;20154;-62
2023/03/05 06:25:18;;;;;;;1.92;1.77;;;4.10;53.70;;;;;;4975613;28;20106;-63
2023/03/05 06:27:44;;;;;;;2.22;1.98;;;4.20;53.30;;;;;;4974710;28;20022;-64
2023/03/05 06:30:11;;;;;;;2.00;1.80;;;4.30;53.70;;;;;;4974883;28;20046;-64
2023/03/05 06:32:37;;;;;;;1.60;1.50;;;4.60;53.70;;;;;;4975450;28;20038;-64
2023/03/05 06:35:03;;;;;;;2.60;1.73;;;4.90;53.60;;;;;;4975462;28;20037;-64
2023/03/05 06:37:28;;;;;;;2.00;1.80;;;5.00;52.70;;;;;;4975776;28;20030;-61
2023/03/05 06:39:54;;;;;;;2.75;1.90;;;5.00;52.20;;;;;;4977398;28;20027;-61
2023/03/05 06:42:20;;;;;;;2.00;1.90;;;4.70;51.90;;;;;;4977920;28;20045;-62
2023/03/05 06:44:46;;;;;;;1.75;1.63;;;4.50;52.20;;;;;;4975904;28;20389;-62
2023/03/05 06:47:11;;;;;;;1.90;1.80;;;4.40;52.90;;;;;;4971532;28;20026;-61
2023/03/05 06:49:38;;;;;;;2.10;1.90;;;4.40;53.00;;;;;;4978826;28;20106;-61
2023/03/05 06:52:05;;;;;;;1.92;1.65;;;4.40;53.20;;;;;;4973273;28;20127;-63
2023/03/05 06:54:30;;;;;;;2.08;1.98;;;4.40;53.20;;;;;;4970191;28;20037;-63
2023/03/05 06:56:56;;;;;;;2.25;1.90;;;4.30;53.20;;;;;;4970349;28;20035;-60
2023/03/05 06:59:21;;;;;;;1.92;1.80;;;4.20;53.30;;;;;;4968400;28;20042;-62
2023/03/05 07:01:47;;;;;;;1.75;1.65;;;4.30;53.70;;;;;;4974803;28;20482;-51
2023/03/05 07:04:14;;;;;;;2.15;1.98;;;4.40;53.80;;;;;;4974702;28;20038;-59
2023/03/05 07:06:41;;;;;;;1.92;1.83;;;4.40;53.70;;;;;;4974293;28;20026;-61
2023/03/05 07:09:09;;;;;;;3.03;2.00;;;4.30;53.50;;;;;;4974714;28;20433;-61
2023/03/05 07:11:35;;;;;;;2.50;1.90;;;4.30;53.50;;;;;;4969037;28;20078;-64
2023/03/05 07:14:02;;;;;;;1.85;1.75;;;4.20;53.40;;;;;;4975804;28;20369;-64
2023/03/05 07:16:30;;;;;;;2.28;2.08;;;4.10;53.50;;;;;;4973581;28;20420;-62
2023/03/05 07:18:58;;;;;;;2.45;2.22;;;4.10;53.80;;;;;;4987926;28;20140;-62
2023/03/05 07:21:27;;;;;;;2.25;2.00;;;3.90;53.70;;;;;;4968533;28;20433;-54
2023/03/05 07:23:55;;;;;;;2.60;2.00;;;3.90;53.90;;;;;;4967031;28;20047;-56
2023/03/05 07:26:21;;;;;;;1.88;1.77;;;3.80;54.00;;;;;;4970298;28;20649;-53
2023/03/05 07:28:47;;;;;;;2.53;2.30;;;3.80;54.40;;;;;;4969761;28;20037;-55
2023/03/05 07:31:17;;;;;;;2.20;2.00;;;3.70;54.50;;;;;;4972283;28;20110;-62
2023/03/05 07:33:44;;;;;;;2.45;2.25;;;3.70;54.70;;;;;;4972013;28;20465;-62
2023/03/05 07:36:11;;;;;;;3.15;2.30;;;3.60;54.50;;;;;;4973513;28;20027;-54
2023/03/05 07:38:37;;;;;;;2.85;2.00;;;3.60;54.50;;;;;;4972752;28;20461;-50
2023/03/05 07:41:04;;;;;;;2.38;2.05;;;3.60;54.60;;;;;;4972036;28;20115;-49
2023/03/05 07:43:30;;;;;;;2.80;2.28;;;3.50;54.50;;;;;;4970817;28;20469;-52
2023/03/05 07:45:56;;;;;;;2.38;1.80;;;3.50;54.70;;;;;;4970240;28;20027;-62
2023/03/05 07:48:23;;;;;;;2.15;1.90;;;3.60;55.00;;;;;;4970368;28;20027;-62
2023/03/05 07:50:49;;;;;;;2.55;2.30;;;3.60;54.70;;;;;;4973259;28;20439;-61
2023/03/05 07:53:15;;;;;;;2.72;2.20;;;3.70;54.70;;;;;;4978399;28;20118;-62
2023/03/05 07:55:45;;;;;;;2.10;2.00;;;3.80;55.10;;;;;;4964639;28;20118;-62
2023/03/05 07:58:12;;;;;;;2.10;1.90;;;3.90;54.80;;;;;;4969906;28;20455;-62
2023/03/05 08:00:39;;;;;;;3.15;2.00;;;4.00;54.40;;;;;;4972745;28;20101;-61
2023/03/05 08:03:04;;;;;;;2.08;1.90;;;4.10;54.20;;;;;;4971955;28;20061;-61
2023/03/05 08:05:30;;;;;;;2.33;2.10;;;4.10;54.00;;;;;;4970734;28;20058;-60
2023/03/05 08:07:55;;;;;;;2.33;2.13;;;4.00;53.90;;;;;;4972194;28;20113;-60
2023/03/05 08:10:21;;;;;;;2.10;1.92;;;3.90;53.90;;;;;;4973245;28;20410;-61
2023/03/05 08:12:47;;;;;;;1.90;1.80;;;3.90;54.20;;;;;;4961085;28;20038;-62
2023/03/05 08:15:12;;;;;;;2.83;2.08;;;3.90;54.20;;;;;;4973031;28;20030;-62
2023/03/05 08:17:38;;;;;;;2.20;2.03;;;3.90;54.10;;;;;;4971973;28;20039;-61
2023/03/05 08:20:09;;;;;;;2.28;2.08;;;3.90;54.20;;;;;;4964200;28;20030;-62
2023/03/05 08:22:35;;;;;;;3.65;2.40;;;3.80;54.30;;;;;;4962990;28;20054;-53
2023/03/05 08:25:01;;;;;;;2.35;2.10;;;3.70;54.50;;;;;;4966944;28;20031;-55
2023/03/05 08:27:27;;;;;;;2.85;2.10;;;3.60;54.60;;;;;;4974016;28;20030;-60
2023/03/05 08:29:53;;;;;;;2.80;2.30;;;3.60;54.70;;;;;;4972496;28;20493;-60
2023/03/05 08:32:18;;;;;;;3.50;2.40;;;3.60;54.60;;;;;;4972404;28;20034;-60
2023/03/05 08:34:44;;;;;;;2.20;2.00;;;3.60;54.50;;;;;;4972126;28;20031;-58
2023/03/05 08:37:10;;;;;;;3.40;1.95;;;3.60;54.40;;;;;;4979334;28;20063;-64
2023/03/05 08:39:36;;;;;;;2.60;2.40;;;3.60;54.60;;;;;;4973548;28;20026;-64
2023/03/05 08:42:02;;;;;;;2.25;2.00;;;3.60;54.60;;;;;;4973565;28;20030;-64
2023/03/05 08:44:28;;;;;;;3.30;2.15;;;3.60;54.50;;;;;;4966710;28;20110;-64
2023/03/05 08:46:54;;;;;;;2.22;2.03;;;3.60;55.20;;;;;;4972190;28;20161;-52
2023/03/05 08:49:19;;;;;;;2.50;2.30;;;3.50;54.60;;;;;;4975745;28;20034;-52
2023/03/05 08:51:45;;;;;;;2.83;2.30;;;3.50;54.70;;;;;;4973361;28;20046;-53
2023/03/05 08:54:10;;;;;;;3.35;2.42;;;3.50;54.60;;;;;;4973093;28;20033;-52
2023/03/05 08:56:36;;;;;;;2.33;2.13;;;3.50;54.70;;;;;;4973573;28;20023;-62
2023/03/05 08:59:02;;;;;;;3.47;2.30;;;3.60;55.00;;;;;;4972477;28;20094;-62
2023/03/05 09:01:30;;;;;;;3.05;2.30;;;3.60;55.00;;;;;;4969112;28;20035;-61
2023/03/05 09:03:57;;;;;;;2.40;2.20;;;3.60;54.90;;;;;;4972552;28;20489;-60
2023/03/05 09:06:23;;;;;;;2.22;2.03;;;3.60;54.90;;;;;;4969511;28;20122;-59
2023/03/05 09:08:49;;;;;;;1.98;1.88;;;3.70;55.10;;;;;;4971724;28;20045;-60
2023/03/05 09:11:15;;;;;;;2.10;1.90;;;3.80;55.20;;;;;;4967934;28;20150;-60
2023/03/05 09:13:41;;;;;;;2.90;2.15;;;3.90;55.20;;;;;;4970521;28;20038;-61
2023/03/05 09:16:15;;;;;;;2.95;2.15;;;4.00;54.70;;;;;;4974622;28;20707;-51
2023/03/05 09:18:41;;;;;;;4.25;2.53;;;4.10;54.50;;;;;;4973327;28;20045;-49
2023/03/05 09:21:10;;;;;;;3.10;2.00;;;4.00;54.30;;;;;;4972781;28;20137;-63
2023/03/05 09:23:36;;;;;;;2.30;2.10;;;4.00;54.30;;;;;;4973282;28;20063;-63
2023/03/05 09:26:04;;;;;;;2.42;2.15;;;3.90;54.10;;;;;;4972385;28;20019;-53
2023/03/05 09:28:30;;;;;;;3.53;2.20;;;3.90;54.30;;;;;;4970504;28;20039;-52
2023/03/05 09:30:56;;;;;;;3.10;2.47;;;3.90;54.30;;;;;;4965092;28;20038;-49
2023/03/05 09:33:21;;;;;;;3.00;2.20;;;3.80;54.10;;;;;;4972582;28;20038;-52
2023/03/05 09:35:47;;;;;;;2.55;2.30;;;3.80;54.10;;;;;;4970539;28;20397;-62
2023/03/05 09:38:13;;;;;;;2.10;1.90;;;3.80;54.30;;;;;;4977777;28;20492;-61
2023/03/05 09:40:49;;;;;;;2.60;2.20;;;3.80;54.40;;;;;;4970438;28;20054;-61
2023/03/05 09:43:37;;;;;;;3.65;2.40;;;3.80;54.50;;;;;;4976776;28;20116;-62
2023/03/05 09:46:24;;;;;;;2.85;2.35;;;3.80;54.30;;;;;;4974397;28;20038;-62
2023/03/05 09:48:57;;;;;;;3.42;2.50;;;3.80;54.80;;;;;;4973359;28;20023;-61
2023/03/05 09:51:26;;;;;;;3.15;2.20;;;3.80;54.40;;;;;;4980224;28;20026;-63
2023/03/05 09:54:02;;;;;;;2.20;2.00;;;3.90;54.50;;;;;;4975412;28;20065;-63
2023/03/05 09:56:35;;;;;;;2.30;2.10;;;3.90;54.40;;;;;;4968385;28;20035;-61
2023/03/05 09:59:29;;;;;;;3.20;2.38;;;4.00;54.30;;;;;;4970241;28;20460;-62
2023/03/05 10:02:01;;;;;;;4.43;2.55;;;4.10;54.30;;;;;;4963090;28;20039;-62
2023/03/05 10:04:29;;;;;;;2.90;2.05;;;4.00;54.20;;;;;;4973658;28;20454;-62
2023/03/05 10:07:12;;;;;;;2.63;2.10;;;4.10;54.30;;;;;;4975086;28;20054;-61
2023/03/05 10:10:00;;;;;;;4.00;2.25;;;4.10;54.30;;;;;;4975328;28;20517;-62
2023/03/05 10:12:41;;;;;;;3.90;2.10;;;4.10;54.10;;;;;;4961922;28;20487;-63
2023/03/05 10:15:36;;;;;;;2.53;2.10;;;4.10;54.00;;;;;;4977491;28;20034;-63
2023/03/05 10:18:01;;;;;;;2.20;1.98;;;4.10;53.90;;;;;;4952827;28;20039;-61
2023/03/05 10:20:52;;;;;;;2.13;2.00;;;4.10;54.20;;;;;;4975432;28;20031;-58
2023/03/05 10:23:49;;;;;;;2.42;2.00;;;4.20;54.00;;;;;;4965794;28;20414;-52
2023/03/05 10:26:53;;;;;;;4.57;2.25;;;4.20;54.00;;;;;;4964524;28;20031;-62
2023/03/05 10:29:44;;;;;;;3.30;2.15;;;4.20;54.00;;;;;;4965943;28;20046;-64
2023/03/05 10:32:36;;;;;;;2.83;2.28;;;4.20;53.70;;;;;;4971140;28;20039;-63
2023/03/05 10:35:26;;;;;;;2.60;2.15;;;4.20;53.70;;;;;;4933502;29;20039;-63
2023/03/05 10:37:54;;;;;;;2.50;2.30;;;4.20;53.50;;;;;;4978384;28;20448;-63
2023/03/05 10:40:38;;;;;;;2.75;1.98;;;4.20;53.50;;;;;;4975796;28;20109;-62
2023/03/05 10:43:25;;;;;;;2.10;1.92;;;4.20;53.70;;;;;;4980055;28;20517;-62
2023/03/05 10:45:53;;;;;;;3.63;2.20;;;4.20;53.40;;;;;;4966053;28;20425;-61
2023/03/05 10:48:43;;;;;;;2.20;2.00;;;4.20;53.40;;;;;;4979126;28;20023;-61
2023/03/05 10:51:27;;;;;;;2.78;2.03;;;4.20;53.40;;;;;;4975591;28;20394;-62
2023/03/05 10:54:00;;;;;;;2.25;2.08;;;4.20;53.60;;;;;;4975340;28;20035;-61
2023/03/05 10:56:27;;;;;;;2.20;2.03;;;4.30;53.50;;;;;;4975661;28;20027;-54
2023/03/05 10:58:53;;;;;;;2.50;2.13;;;4.30;53.50;;;;;;4972855;28;20386;-51
2023/03/05 11:01:27;;;;;;;2.50;2.30;;;4.40;53.40;;;;;;4972171;28;20038;-62
2023/03/05 11:03:59;;;;;;;2.95;2.45;;;4.40;53.00;;;;;;4968844;28;20031;-62
2023/03/05 11:06:38;;;;;;;2.28;2.08;;;4.50;53.00;;;;;;4975116;28;20118;-62
2023/03/05 11:09:26;;;;;;;2.38;2.17;;;4.50;53.50;;;;;;4974530;28;20031;-61
2023/03/05 11:12:13;;;;;;;2.28;1.92;;;4.60;53.00;;;;;;4966046;28;20070;-62
2023/03/05 11:14:42;;;;;;;2.15;2.05;;;4.70;53.10;;;;;;4982403;28;20031;-62
2023/03/05 11:17:28;;;;;;;1.92;1.83;;;4.70;52.80;;;;;;4974902;28;20126;-63
2023/03/05 11:19:56;;;;;;;2.65;2.03;;;4.80;52.70;;;;;;4964072;28;20494;-63
2023/03/05 11:22:24;;;;;;;2.92;2.00;;;4.80;52.80;;;;;;4961992;28;20073;-63
2023/03/05 11:25:10;;;;;;;2.60;2.17;;;4.90;53.60;;;;;;4971187;28;20034;-63
2023/03/05 11:27:50;;;;;;;3.85;2.50;;;4.90;52.70;;;;;;4974722;28;20041;-62
2023/03/05 11:30:25;;;;;;;2.30;2.10;;;4.90;52.90;;;;;;4967283;28;20097;-62
2023/03/05 11:33:05;;;;;;;3.72;2.20;;;4.90;52.80;;;;;;4974104;28;20453;-52
2023/03/05 11:35:37;;;;;;;3.08;2.28;;;4.90;52.90;;;;;;4973790;28;20026;-62
2023/03/05 11:38:05;;;;;;;2.67;2.30;;;4.90;52.50;;;;;;4981163;28;20473;-62
2023/03/05 11:40:36;;;;;;;2.67;2.45;;;4.90;52.40;;;;;;4974645;28;20023;-61
2023/03/05 11:43:03;;;;;;;2.60;2.40;;;4.90;52.20;;;;;;4978707;28;20035;-59
2023/03/05 11:45:31;;;;;;;2.67;2.28;;;4.90;52.10;;;;;;4974424;28;20026;-60
2023/03/05 11:48:07;;;;;;;1.95;1.83;;;4.90;52.60;;;;;;4980659;28;20058;-61
2023/03/05 11:50:34;;;;;;;2.28;2.03;;;5.00;52.70;;;;;;4978958;28;20023;-61
2023/03/05 11:53:08;;;;;;;2.22;2.03;;;5.00;53.10;;;;;;4974219;28;20035;-61
2023/03/05 11:55:43;;;;;;;2.33;2.10;;;4.90;52.90;;;;;;4974932;28;20134;-55
2023/03/05 11:58:15;;;;;;;2.95;2.20;;;4.90;53.10;;;;;;4957932;28;20102;-55
2023/03/05 12:00:46;;;;;;;3.45;2.45;;;4.80;53.20;;;;;;4974354;28;20445;-55
2023/03/05 12:03:15;;;;;;;2.85;2.22;;;4.70;53.00;;;;;;4970097;28;20093;-54
2023/03/05 12:05:44;;;;;;;3.78;2.15;;;4.70;52.80;;;;;;4974381;28;20073;-63
2023/03/05 12:08:18;;;;;;;2.25;1.98;;;4.70;53.00;;;;;;4973863;28;20035;-64
2023/03/05 12:10:44;;;;;;;2.60;2.00;;;4.70;52.70;;;;;;4973603;28;20031;-64
2023/03/05 12:13:27;;;;;;;2.78;2.05;;;4.70;52.80;;;;;;4962268;28;20039;-63
2023/03/05 12:16:10;;;;;;;2.17;1.98;;;4.70;52.80;;;;;;4977733;28;20043;-64
2023/03/05 12:18:39;;;;;;;2.10;2.00;;;4.70;52.60;;;;;;4973963;28;20355;-64
2023/03/05 12:21:26;;;;;;;2.50;2.30;;;4.70;52.70;;;;;;4973199;28;20105;-64
2023/03/05 12:23:53;;;;;;;2.20;2.00;;;4.70;52.10;;;;;;4973647;28;20401;-64
2023/03/05 12:26:58;;;;;;;3.22;2.30;;;4.70;52.00;;;;;;4973339;28;20554;-64
2023/03/05 12:29:39;;;;;;;2.88;2.00;;;4.70;51.90;;;;;;4969655;28;20026;-63
2023/03/05 12:32:24;;;;;;;2.50;2.08;;;4.60;52.10;;;;;;4967338;28;20058;-64
2023/03/05 12:35:20;;;;;;;2.40;2.20;;;4.60;52.10;;;;;;4964194;28;20054;-64
2023/03/05 12:37:48;;;;;;;3.33;2.10;;;4.60;51.90;;;;;;4973013;28;20085;-64
2023/03/05 12:40:24;;;;;;;3.72;2.33;;;4.60;52.10;;;;;;4971951;28;20093;-63
2023/03/05 12:43:21;;;;;;;2.05;1.77;;;4.70;52.10;;;;;;4976919;28;20393;-64
2023/03/05 12:45:47;;;;;;;2.40;2.20;;;4.70;52.30;;;;;;4960025;28;20094;-63
2023/03/05 12:48:12;;;;;;;2.53;2.33;;;4.90;52.30;;;;;;4970266;28;20031;-64
2023/03/05 12:50:38;;;;;;;2.53;2.30;;;5.00;51.90;;;;;;4980926;28;20042;-63
2023/03/05 12:53:19;;;;;;;3.00;2.60;;;5.00;52.30;;;;;;4971720;28;20386;-64
2023/03/05 12:55:49;;;;;;;2.72;2.40;;;5.10;51.90;;;;;;4973002;28;20034;-63
2023/03/05 12:58:39;;;;;;;3.35;1.90;;;5.20;51.80;;;;;;4971552;28;20029;-64
2023/03/05 13:01:10;;;;;;;2.53;1.90;;;5.30;51.60;;;;;;4972502;28;20046;-64
2023/03/05 13:03:59;;;;;;;1.92;1.77;;;5.30;51.30;;;;;;4969107;28;20030;-63
2023/03/05 13:06:32;;;;;;;2.72;2.08;;;5.30;51.20;;;;;;4970267;28;20033;-65
2023/03/05 13:09:01;;;;;;;2.40;2.20;;;5.40;51.20;;;;;;4973099;28;20023;-63